Time;durP1;ratioP1;P1;durP2;ratioP2;P2;SDS_P1;SDS_P2;PMS_P1;PMS_P2;Temp;Humidity;BMP_temperature;BMP_pressure;BME280_temperature;BME280_humidity;BME280_pressure;Samples;Min_cycle;Max_cycle;Signal;HPM_P1;HPM_P2
2021/09/05 00:01:54;;;;;;;21.83;14.53;;;;;;;;;;5008445;28;20211;-72
2021/09/05 00:04:20;;;;;;;17.50;12.07;;;;;;;;;;5007462;28;20778;-72
2021/09/05 00:06:47;;;;;;;18.40;12.07;;;;;;;;;;5005508;28;20236;-72
2021/09/05 00:09:13;;;;;;;18.67;12.73;;;;;;;;;;5009831;28;20285;-72
2021/09/05 00:11:40;;;;;;;21.17;12.97;;;;;;;;;;5008333;28;20232;-72
2021/09/05 00:14:06;;;;;;;20.77;13.77;;;;;;;;;;5006565;28;20244;-72
2021/09/05 00:16:32;;;;;;;17.47;13.20;;;;;;;;;;5006960;28;20724;-72
2021/09/05 00:19:01;;;;;;;21.47;13.33;;;;;;;;;;5005014;28;20223;-72
2021/09/05 00:21:27;;;;;;;22.03;14.00;;;;;;;;;;5007444;28;20231;-72
2021/09/05 00:23:54;;;;;;;21.57;14.20;;;;;;;;;;5007775;28;20215;-72
2021/09/05 00:26:20;;;;;;;21.47;13.80;;;;;;;;;;5008333;28;20249;-72
2021/09/05 00:28:46;;;;;;;20.70;12.67;;;;;;;;;;5006689;28;20647;-72
2021/09/05 00:31:13;;;;;;;22.57;13.33;;;;;;;;;;5004288;28;20275;-72
2021/09/05 00:33:39;;;;;;;19.17;13.60;;;;;;;;;;5008909;28;20220;-72
2021/09/05 00:36:07;;;;;;;21.07;13.40;;;;;;;;;;5007039;28;20277;-72
2021/09/05 00:38:33;;;;;;;21.57;13.40;;;;;;;;;;5008202;28;20266;-72
2021/09/05 00:40:59;;;;;;;22.20;14.70;;;;;;;;;;5008198;28;20215;-72
2021/09/05 00:43:26;;;;;;;21.53;14.50;;;;;;;;;;5007165;28;20270;-72
2021/09/05 00:45:52;;;;;;;20.20;13.87;;;;;;;;;;5005650;28;21050;-72
2021/09/05 00:48:19;;;;;;;22.13;14.63;;;;;;;;;;5006880;28;20731;-72
2021/09/05 00:50:45;;;;;;;24.67;14.30;;;;;;;;;;5007889;28;20635;-72
2021/09/05 00:53:13;;;;;;;22.57;14.87;;;;;;;;;;5006258;28;20294;-72
2021/09/05 00:55:39;;;;;;;23.87;15.03;;;;;;;;;;5003854;28;20257;-72
2021/09/05 00:58:07;;;;;;;21.80;14.97;;;;;;;;;;5008003;28;20214;-72
2021/09/05 01:00:34;;;;;;;25.43;14.00;;;;;;;;;;5007833;28;20218;-72
2021/09/05 01:03:01;;;;;;;20.43;13.87;;;;;;;;;;5004708;28;20689;-72
2021/09/05 01:05:27;;;;;;;26.00;14.77;;;;;;;;;;5006982;28;20211;-72
2021/09/05 01:07:54;;;;;;;21.43;15.37;;;;;;;;;;5005811;28;20634;-72
2021/09/05 01:10:21;;;;;;;25.23;15.23;;;;;;;;;;5008070;28;20621;-72
2021/09/05 01:12:48;;;;;;;21.60;14.40;;;;;;;;;;5007129;28;20323;-72
2021/09/05 01:15:14;;;;;;;23.70;14.57;;;;;;;;;;5008742;28;20239;-72
2021/09/05 01:17:40;;;;;;;24.07;15.90;;;;;;;;;;5007841;28;20266;-72
2021/09/05 01:20:09;;;;;;;27.63;16.30;;;;;;;;;;5006757;28;20221;-72
2021/09/05 01:22:36;;;;;;;24.90;16.07;;;;;;;;;;5006898;28;20759;-72
2021/09/05 01:25:03;;;;;;;28.57;15.60;;;;;;;;;;5007276;28;20269;-72
2021/09/05 01:27:31;;;;;;;24.23;17.00;;;;;;;;;;5008607;28;20761;-72
2021/09/05 01:29:58;;;;;;;23.87;15.87;;;;;;;;;;5006525;28;20229;-72
2021/09/05 01:32:24;;;;;;;27.00;16.67;;;;;;;;;;5009860;28;20242;-72
2021/09/05 01:34:50;;;;;;;24.33;15.57;;;;;;;;;;5007644;28;20269;-72
2021/09/05 01:37:17;;;;;;;27.13;17.10;;;;;;;;;;5007516;28;21281;-72
2021/09/05 01:39:44;;;;;;;26.30;17.13;;;;;;;;;;5007368;28;20666;-72
2021/09/05 01:42:10;;;;;;;28.80;17.40;;;;;;;;;;5009353;28;20215;-72
2021/09/05 01:44:38;;;;;;;26.70;17.07;;;;;;;;;;5012193;28;20216;-72
2021/09/05 01:47:05;;;;;;;25.23;15.93;;;;;;;;;;5012594;28;20274;-72
2021/09/05 01:49:31;;;;;;;31.93;17.47;;;;;;;;;;5009949;28;20298;-72
2021/09/05 01:51:57;;;;;;;30.13;17.07;;;;;;;;;;5008193;28;20291;-72
2021/09/05 01:54:24;;;;;;;27.17;18.17;;;;;;;;;;5011611;28;20219;-72
2021/09/05 01:56:50;;;;;;;23.87;17.10;;;;;;;;;;5011963;28;20222;-72
2021/09/05 01:59:17;;;;;;;25.07;17.07;;;;;;;;;;5011118;28;20630;-72
2021/09/05 02:01:44;;;;;;;28.00;18.10;;;;;;;;;;5010308;28;20227;-72
2021/09/05 02:04:11;;;;;;;29.20;17.57;;;;;;;;;;5009819;28;20238;-72
2021/09/05 02:06:37;;;;;;;28.50;18.20;;;;;;;;;;5008925;28;20270;-72
2021/09/05 02:09:03;;;;;;;25.87;18.27;;;;;;;;;;5009884;28;20223;-72
2021/09/05 02:11:30;;;;;;;29.73;19.67;;;;;;;;;;5008769;28;20219;-72
2021/09/05 02:13:57;;;;;;;28.10;18.30;;;;;;;;;;5010506;28;20788;-72
2021/09/05 02:16:23;;;;;;;24.40;18.23;;;;;;;;;;5008603;28;20247;-72
2021/09/05 02:18:51;;;;;;;27.37;18.40;;;;;;;;;;5010408;28;20219;-72
2021/09/05 02:21:17;;;;;;;32.33;18.17;;;;;;;;;;5010701;28;20598;-72
2021/09/05 02:23:44;;;;;;;30.90;18.30;;;;;;;;;;5008853;28;20220;-72
2021/09/05 02:26:10;;;;;;;33.30;18.80;;;;;;;;;;5007516;28;20216;-72
2021/09/05 02:28:37;;;;;;;29.03;19.00;;;;;;;;;;5008643;28;20630;-72
2021/09/05 02:31:03;;;;;;;31.77;19.37;;;;;;;;;;5009346;28;20227;-72
2021/09/05 02:33:30;;;;;;;28.70;19.43;;;;;;;;;;5010670;28;20277;-72
2021/09/05 02:35:58;;;;;;;30.43;19.30;;;;;;;;;;5009181;28;20212;-72
2021/09/05 02:38:24;;;;;;;32.97;19.50;;;;;;;;;;5010032;28;20258;-72
2021/09/05 02:40:51;;;;;;;29.63;19.13;;;;;;;;;;5009347;28;20657;-72
2021/09/05 02:43:17;;;;;;;31.73;19.40;;;;;;;;;;5007633;28;20289;-72
2021/09/05 02:45:43;;;;;;;32.43;20.07;;;;;;;;;;5008941;28;20270;-72
2021/09/05 02:48:10;;;;;;;29.20;19.30;;;;;;;;;;5008130;28;20224;-72
2021/09/05 02:50:36;;;;;;;33.97;20.20;;;;;;;;;;5008539;28;20274;-72
2021/09/05 02:53:04;;;;;;;35.33;21.10;;;;;;;;;;5006967;28;20262;-72
2021/09/05 02:55:30;;;;;;;34.20;20.20;;;;;;;;;;5010748;28;20226;-72
2021/09/05 02:57:57;;;;;;;38.77;20.40;;;;;;;;;;5009800;28;20218;-72
2021/09/05 03:00:23;;;;;;;29.40;20.17;;;;;;;;;;5008895;28;20219;-72
2021/09/05 03:02:51;;;;;;;32.60;19.80;;;;;;;;;;5007259;28;20295;-72
2021/09/05 03:05:17;;;;;;;34.13;19.60;;;;;;;;;;5009084;28;20219;-72
2021/09/05 03:07:44;;;;;;;34.23;22.23;;;;;;;;;;5009706;28;20282;-72
2021/09/05 03:10:12;;;;;;;32.47;21.23;;;;;;;;;;5009220;28;20222;-72
2021/09/05 03:12:38;;;;;;;37.30;21.63;;;;;;;;;;5006646;28;20649;-72
2021/09/05 03:15:06;;;;;;;36.50;22.67;;;;;;;;;;5005504;28;20290;-72
2021/09/05 03:17:32;;;;;;;35.70;22.37;;;;;;;;;;5009029;28;20271;-72
2021/09/05 03:19:58;;;;;;;39.43;22.83;;;;;;;;;;5004448;28;20216;-72
2021/09/05 03:22:25;;;;;;;32.17;21.00;;;;;;;;;;5008111;28;20281;-72
2021/09/05 03:24:52;;;;;;;38.77;22.73;;;;;;;;;;5007839;28;20631;-72
2021/09/05 03:27:19;;;;;;;32.93;21.53;;;;;;;;;;5007255;28;20220;-72
2021/09/05 03:29:46;;;;;;;36.13;21.53;;;;;;;;;;5007668;28;20269;-72
2021/09/05 03:32:12;;;;;;;37.63;21.77;;;;;;;;;;5009558;28;20263;-72
2021/09/05 03:34:38;;;;;;;36.53;21.63;;;;;;;;;;5008979;28;20786;-72
2021/09/05 03:37:05;;;;;;;40.20;22.33;;;;;;;;;;5012099;28;20230;-72
2021/09/05 03:39:31;;;;;;;33.63;22.33;;;;;;;;;;5007561;28;20283;-72
2021/09/05 03:41:58;;;;;;;37.93;22.43;;;;;;;;;;5008485;28;20219;-71
2021/09/05 03:44:25;;;;;;;41.43;24.37;;;;;;;;;;5007626;28;20243;-71
2021/09/05 03:46:52;;;;;;;35.77;22.30;;;;;;;;;;5008128;28;20269;-72
2021/09/05 03:49:18;;;;;;;36.37;22.43;;;;;;;;;;5007134;28;20268;-72
2021/09/05 03:51:44;;;;;;;38.30;23.10;;;;;;;;;;5009903;28;20693;-71
2021/09/05 03:54:11;;;;;;;38.07;23.50;;;;;;;;;;5006811;28;20680;-71
2021/09/05 03:56:37;;;;;;;40.47;24.13;;;;;;;;;;5004918;28;20623;-71
2021/09/05 03:59:03;;;;;;;38.93;24.00;;;;;;;;;;5007159;28;20223;-71
2021/09/05 04:01:32;;;;;;;35.60;22.67;;;;;;;;;;5008067;28;20218;-71
2021/09/05 04:03:58;;;;;;;36.80;23.40;;;;;;;;;;5005443;28;20386;-71
2021/09/05 04:06:24;;;;;;;37.57;24.33;;;;;;;;;;5007899;28;20277;-72
2021/09/05 04:08:52;;;;;;;39.40;24.00;;;;;;;;;;5007065;28;20211;-72
2021/09/05 04:11:19;;;;;;;38.70;24.13;;;;;;;;;;5007608;28;20244;-71
2021/09/05 04:13:45;;;;;;;36.73;23.83;;;;;;;;;;5005446;28;20712;-71
2021/09/05 04:16:11;;;;;;;35.97;23.10;;;;;;;;;;5008442;28;20289;-71
2021/09/05 04:18:39;;;;;;;44.73;25.60;;;;;;;;;;5004571;28;20218;-71
2021/09/05 04:21:05;;;;;;;39.13;23.40;;;;;;;;;;5006720;28;20223;-71
2021/09/05 04:23:32;;;;;;;38.27;23.50;;;;;;;;;;5009103;28;20650;-71
2021/09/05 04:25:58;;;;;;;40.97;25.40;;;;;;;;;;5008383;28;20220;-72
2021/09/05 04:28:25;;;;;;;42.83;26.90;;;;;;;;;;5008368;28;20696;-71
2021/09/05 04:30:51;;;;;;;39.90;24.57;;;;;;;;;;5005830;28;20254;-72
2021/09/05 04:33:17;;;;;;;42.13;30.08;;;;;;;;;;5005244;28;20514;-73
2021/09/05 04:35:45;;;;;;;38.10;25.97;;;;;;;;;;5006636;28;20220;-73
2021/09/05 04:38:11;;;;;;;43.00;25.80;;;;;;;;;;5008257;28;20236;-74
2021/09/05 04:40:38;;;;;;;40.70;24.97;;;;;;;;;;5005679;28;20222;-73
2021/09/05 04:43:04;;;;;;;40.13;25.37;;;;;;;;;;5004643;28;20233;-74
2021/09/05 04:45:31;;;;;;;45.17;27.90;;;;;;;;;;5005915;28;20218;-74
2021/09/05 04:47:57;;;;;;;44.43;26.90;;;;;;;;;;5004737;28;20337;-74
2021/09/05 04:50:23;;;;;;;40.60;25.97;;;;;;;;;;5003260;28;20269;-74
2021/09/05 04:52:51;;;;;;;50.23;25.97;;;;;;;;;;5005461;28;20764;-74
2021/09/05 04:55:18;;;;;;;41.40;26.10;;;;;;;;;;5007074;28;20226;-74
2021/09/05 04:57:44;;;;;;;41.57;26.30;;;;;;;;;;5006036;28;20274;-74
2021/09/05 05:00:12;;;;;;;49.33;28.40;;;;;;;;;;5005919;28;20534;-74
2021/09/05 05:02:38;;;;;;;40.83;27.90;;;;;;;;;;5004337;28;20237;-74
2021/09/05 05:05:05;;;;;;;42.80;26.50;;;;;;;;;;5004612;28;20219;-74
2021/09/05 05:07:32;;;;;;;43.40;26.50;;;;;;;;;;5007277;28;20241;-74
2021/09/05 05:09:59;;;;;;;38.17;24.93;;;;;;;;;;5009615;28;20219;-74
2021/09/05 05:12:26;;;;;;;43.47;26.83;;;;;;;;;;5007013;28;20250;-74
2021/09/05 05:14:52;;;;;;;44.73;27.53;;;;;;;;;;5007621;28;20321;-74
2021/09/05 05:17:18;;;;;;;43.17;26.83;;;;;;;;;;5012342;28;20265;-74
2021/09/05 05:19:45;;;;;;;46.13;26.70;;;;;;;;;;5010291;28;20226;-74
2021/09/05 05:22:11;;;;;;;39.17;25.17;;;;;;;;;;5009618;28;20288;-74
2021/09/05 05:24:37;;;;;;;38.23;25.40;;;;;;;;;;5009020;28;20637;-74
2021/09/05 05:27:06;;;;;;;44.60;26.17;;;;;;;;;;5010967;28;20214;-74
2021/09/05 05:29:32;;;;;;;43.13;26.57;;;;;;;;;;5008720;28;20230;-74
2021/09/05 05:31:58;;;;;;;41.43;26.87;;;;;;;;;;5010750;28;20215;-74
2021/09/05 05:34:25;;;;;;;39.53;24.97;;;;;;;;;;5008403;28;20250;-74
2021/09/05 05:36:51;;;;;;;38.90;25.57;;;;;;;;;;5012143;28;20235;-74
2021/09/05 05:39:17;;;;;;;40.27;24.80;;;;;;;;;;5009934;28;20229;-74
2021/09/05 05:41:44;;;;;;;40.17;25.70;;;;;;;;;;5011464;28;20216;-74
2021/09/05 05:44:11;;;;;;;37.70;25.17;;;;;;;;;;5007919;28;20212;-75
2021/09/05 05:46:38;;;;;;;36.00;24.50;;;;;;;;;;5009917;28;20619;-74
2021/09/05 05:49:04;;;;;;;37.00;24.97;;;;;;;;;;5009232;28;20644;-74
2021/09/05 05:51:31;;;;;;;32.17;22.90;;;;;;;;;;5009287;28;20292;-74
2021/09/05 05:53:57;;;;;;;31.93;23.53;;;;;;;;;;5010117;28;20309;-74
2021/09/05 05:56:24;;;;;;;32.63;23.57;;;;;;;;;;5009259;28;20215;-74
2021/09/05 05:58:50;;;;;;;31.30;22.27;;;;;;;;;;5009621;28;20655;-74
2021/09/05 06:01:18;;;;;;;31.83;21.43;;;;;;;;;;5007228;28;20221;-74
2021/09/05 06:03:44;;;;;;;29.87;22.03;;;;;;;;;;5012573;28;20586;-74
2021/09/05 06:06:11;;;;;;;31.77;21.73;;;;;;;;;;5007235;28;20283;-74
2021/09/05 06:08:37;;;;;;;31.03;22.47;;;;;;;;;;5007894;28;20216;-74
2021/09/05 06:11:04;;;;;;;28.03;21.60;;;;;;;;;;5009890;28;20220;-74
2021/09/05 06:13:30;;;;;;;28.53;21.47;;;;;;;;;;5008474;28;20691;-74
2021/09/05 06:15:57;;;;;;;26.30;21.63;;;;;;;;;;5009988;28;20220;-74
2021/09/05 06:18:25;;;;;;;24.23;20.53;;;;;;;;;;5009860;28;20279;-74
2021/09/05 06:20:51;;;;;;;26.63;20.53;;;;;;;;;;5008710;28;20266;-74
2021/09/05 06:23:17;;;;;;;26.50;19.80;;;;;;;;;;5008292;28;20292;-74
2021/09/05 06:25:44;;;;;;;27.57;21.17;;;;;;;;;;5008136;28;20224;-74
2021/09/05 06:28:10;;;;;;;26.27;20.60;;;;;;;;;;5007423;28;20239;-74
2021/09/05 06:30:37;;;;;;;21.73;19.30;;;;;;;;;;5004657;28;20208;-74
2021/09/05 06:33:03;;;;;;;26.47;19.27;;;;;;;;;;5007302;28;20741;-74
2021/09/05 06:35:31;;;;;;;19.87;17.77;;;;;;;;;;5006055;28;20271;-74
2021/09/05 06:37:57;;;;;;;23.07;19.57;;;;;;;;;;5006799;28;21144;-74
2021/09/05 06:40:24;;;;;;;28.33;19.57;;;;;;;;;;5008168;28;20216;-74
2021/09/05 06:42:50;;;;;;;25.70;18.60;;;;;;;;;;5005864;28;20601;-74
2021/09/05 06:45:17;;;;;;;23.33;17.97;;;;;;;;;;5005664;28;20216;-74
2021/09/05 06:47:43;;;;;;;24.50;17.60;;;;;;;;;;5008137;28;20219;-74
2021/09/05 06:50:11;;;;;;;20.00;17.73;;;;;;;;;;5006249;28;20270;-74
2021/09/05 06:52:39;;;;;;;21.93;16.97;;;;;;;;;;5008919;28;20232;-74
2021/09/05 06:55:06;;;;;;;23.33;17.50;;;;;;;;;;5006430;28;20224;-75
2021/09/05 06:57:33;;;;;;;20.77;17.10;;;;;;;;;;5007018;28;20206;-74
2021/09/05 06:59:59;;;;;;;20.47;16.20;;;;;;;;;;5007809;28;20218;-75
2021/09/05 07:02:26;;;;;;;21.97;17.37;;;;;;;;;;5008028;28;20249;-74
2021/09/05 07:04:52;;;;;;;19.80;15.73;;;;;;;;;;5005955;28;20219;-75
2021/09/05 07:07:18;;;;;;;18.07;16.10;;;;;;;;;;5007564;28;20290;-75
2021/09/05 07:09:46;;;;;;;18.20;15.97;;;;;;;;;;5005482;28;20220;-74
2021/09/05 07:12:12;;;;;;;19.80;16.50;;;;;;;;;;5005452;28;20221;-75
2021/09/05 07:14:39;;;;;;;18.13;15.43;;;;;;;;;;5008668;28;20275;-75
2021/09/05 07:17:05;;;;;;;15.97;14.27;;;;;;;;;;5005895;28;20227;-75
2021/09/05 07:19:32;;;;;;;15.77;14.10;;;;;;;;;;5006867;28;20366;-75
2021/09/05 07:21:58;;;;;;;20.17;15.70;;;;;;;;;;5006623;28;21265;-75
2021/09/05 07:24:25;;;;;;;16.13;14.20;;;;;;;;;;5007959;28;20211;-74
2021/09/05 07:26:53;;;;;;;19.90;15.03;;;;;;;;;;5006692;28;20269;-74
2021/09/05 07:29:19;;;;;;;17.83;15.03;;;;;;;;;;5006408;28;20209;-74
2021/09/05 07:31:46;;;;;;;16.33;14.63;;;;;;;;;;5006075;28;20770;-74
2021/09/05 07:34:12;;;;;;;16.43;14.63;;;;;;;;;;5007383;28;20781;-75
2021/09/05 07:36:39;;;;;;;16.80;14.77;;;;;;;;;;5007014;28;20532;-74
2021/09/05 07:39:05;;;;;;;16.50;14.33;;;;;;;;;;5005003;28;20257;-75
2021/09/05 07:41:32;;;;;;;18.23;14.33;;;;;;;;;;5006566;28;20214;-75
2021/09/05 07:43:59;;;;;;;17.97;14.10;;;;;;;;;;5007516;28;20238;-75
2021/09/05 07:46:26;;;;;;;18.03;14.37;;;;;;;;;;5007291;28;20215;-74
2021/09/05 07:48:52;;;;;;;16.27;13.10;;;;;;;;;;5005640;28;20208;-74
2021/09/05 07:51:23;;;;;;;15.90;14.07;;;;;;;;;;5008069;28;20780;-74
2021/09/05 07:53:50;;;;;;;14.63;12.20;;;;;;;;;;5004523;28;20220;-74
2021/09/05 07:56:16;;;;;;;15.50;13.20;;;;;;;;;;5005967;28;20224;-74
2021/09/05 07:58:43;;;;;;;17.13;12.80;;;;;;;;;;5009367;28;20274;-74
2021/09/05 08:01:10;;;;;;;13.83;12.43;;;;;;;;;;5007074;28;20211;-74
2021/09/05 08:03:39;;;;;;;13.70;11.40;;;;;;;;;;5004975;28;20695;-74
2021/09/05 08:06:06;;;;;;;13.60;11.50;;;;;;;;;;5007234;28;20310;-74
2021/09/05 08:08:33;;;;;;;13.23;11.73;;;;;;;;;;5006566;28;20740;-74
2021/09/05 08:10:59;;;;;;;13.70;10.80;;;;;;;;;;5007107;28;20584;-74
2021/09/05 08:13:25;;;;;;;13.77;10.67;;;;;;;;;;5006570;28;20212;-74
2021/09/05 08:15:52;;;;;;;12.97;10.57;;;;;;;;;;5004864;28;20275;-74
2021/09/05 08:18:20;;;;;;;11.50;10.30;;;;;;;;;;5006071;28;20274;-74
2021/09/05 08:20:46;;;;;;;11.77;9.53;;;;;;;;;;5007586;28;20274;-74
2021/09/05 08:23:12;;;;;;;12.53;9.70;;;;;;;;;;5008324;28;20242;-74
2021/09/05 08:25:39;;;;;;;14.97;9.90;;;;;;;;;;5007752;28;20208;-74
2021/09/05 08:28:07;;;;;;;13.23;10.03;;;;;;;;;;5005942;28;20266;-74
2021/09/05 08:30:33;;;;;;;13.27;9.67;;;;;;;;;;5008093;28;20215;-74
2021/09/05 08:32:59;;;;;;;10.23;9.10;;;;;;;;;;5007315;28;20266;-74
2021/09/05 08:35:27;;;;;;;12.93;9.43;;;;;;;;;;5006075;28;20232;-74
2021/09/05 08:37:53;;;;;;;13.13;9.03;;;;;;;;;;5007359;28;20231;-74
2021/09/05 08:40:23;;;;;;;9.33;7.97;;;;;;;;;;5006615;28;20238;-74
2021/09/05 08:42:52;;;;;;;13.07;9.10;;;;;;;;;;5006400;28;20310;-74
2021/09/05 08:45:18;;;;;;;13.57;8.33;;;;;;;;;;5005041;28;20285;-74
2021/09/05 08:47:44;;;;;;;12.60;8.43;;;;;;;;;;5007992;28;20666;-73
2021/09/05 08:50:12;;;;;;;11.30;8.17;;;;;;;;;;5006947;28;20216;-74
2021/09/05 08:52:40;;;;;;;11.13;8.63;;;;;;;;;;5008463;28;20241;-74
2021/09/05 08:55:07;;;;;;;11.07;8.23;;;;;;;;;;5010940;28;20235;-73
2021/09/05 08:57:34;;;;;;;8.17;7.00;;;;;;;;;;5013903;28;20638;-72
2021/09/05 09:00:00;;;;;;;8.93;7.40;;;;;;;;;;5012161;28;20648;-73
2021/09/05 09:02:44;;;;;;;8.80;6.90;;;;;;;;;;5007951;28;20248;-75
2021/09/05 09:05:11;;;;;;;9.70;7.33;;;;;;;;;;5009692;28;20286;-72
2021/09/05 09:07:46;;;;;;;9.00;7.83;;;;;;;;;;5009994;28;20236;-72
2021/09/05 09:10:13;;;;;;;8.60;7.70;;;;;;;;;;5008812;28;20239;-72
2021/09/05 09:12:41;;;;;;;10.33;8.00;;;;;;;;;;5010729;28;20665;-72
2021/09/05 09:15:22;;;;;;;8.60;6.83;;;;;;;;;;5010093;28;20247;-72
2021/09/05 09:17:54;;;;;;;9.30;7.17;;;;;;;;;;5010806;28;20656;-72
2021/09/05 09:20:32;;;;;;;10.40;8.10;;;;;;;;;;5013378;28;20803;-72
2021/09/05 09:23:11;;;;;;;11.07;8.63;;;;;;;;;;5008149;28;20322;-72
2021/09/05 09:25:38;;;;;;;10.47;7.40;;;;;;;;;;5008400;28;20224;-73
2021/09/05 09:28:22;;;;;;;12.50;8.63;;;;;;;;;;5008187;28;20212;-72
2021/09/05 09:30:49;;;;;;;10.67;8.20;;;;;;;;;;5009268;28;20226;-73
2021/09/05 09:33:20;;;;;;;11.53;8.90;;;;;;;;;;5009960;28;20222;-75
2021/09/05 09:35:51;;;;;;;11.80;8.20;;;;;;;;;;5008225;28;20304;-72
2021/09/05 09:38:19;;;;;;;13.23;8.93;;;;;;;;;;5009916;28;20216;-73
2021/09/05 09:40:47;;;;;;;11.93;8.20;;;;;;;;;;5009883;28;20275;-72
2021/09/05 09:43:18;;;;;;;12.73;8.70;;;;;;;;;;5011001;28;20620;-73
2021/09/05 09:45:45;;;;;;;10.00;8.10;;;;;;;;;;5008046;28;20225;-73
2021/09/05 09:48:11;;;;;;;10.07;8.27;;;;;;;;;;5009811;28;20270;-73
2021/09/05 09:50:42;;;;;;;10.17;8.13;;;;;;;;;;5008985;28;20219;-73
2021/09/05 09:53:08;;;;;;;11.10;8.00;;;;;;;;;;5010161;28;20299;-73
2021/09/05 09:55:39;;;;;;;11.13;8.90;;;;;;;;;;5009000;28;20240;-73
2021/09/05 09:58:06;;;;;;;10.50;9.00;;;;;;;;;;5007639;28;20268;-73
2021/09/05 10:00:33;;;;;;;12.73;8.43;;;;;;;;;;5006921;28;20732;-73
2021/09/05 10:03:00;;;;;;;13.40;9.20;;;;;;;;;;5008103;28;20257;-73
2021/09/05 10:05:27;;;;;;;13.30;9.77;;;;;;;;;;5010482;28;20284;-72
2021/09/05 10:07:56;;;;;;;10.20;8.80;;;;;;;;;;5009076;28;20234;-73
2021/09/05 10:10:24;;;;;;;11.10;9.80;;;;;;;;;;5009079;28;20473;-73
2021/09/05 10:12:53;;;;;;;13.33;10.07;;;;;;;;;;5010533;28;20521;-72
2021/09/05 10:15:21;;;;;;;10.70;9.57;;;;;;;;;;5008253;28;20242;-72
2021/09/05 10:17:48;;;;;;;12.57;9.67;;;;;;;;;;5008203;28;20216;-72
2021/09/05 10:20:16;;;;;;;13.30;9.97;;;;;;;;;;5006060;28;20218;-72
2021/09/05 10:22:43;;;;;;;12.87;9.97;;;;;;;;;;5009447;28;20317;-72
2021/09/05 10:25:10;;;;;;;11.23;9.77;;;;;;;;;;5007919;28;20223;-72
2021/09/05 10:27:38;;;;;;;14.87;9.33;;;;;;;;;;5008010;28;20230;-72
2021/09/05 10:30:16;;;;;;;12.10;10.37;;;;;;;;;;5006661;28;20907;-72
2021/09/05 10:32:44;;;;;;;11.77;10.10;;;;;;;;;;5007631;28;20213;-72
2021/09/05 10:35:31;;;;;;;12.10;8.97;;;;;;;;;;5006189;28;20236;-72
2021/09/05 10:38:21;;;;;;;13.60;10.17;;;;;;;;;;5005162;28;20231;-73
2021/09/05 10:40:50;;;;;;;12.23;10.53;;;;;;;;;;5006702;28;20374;-72
2021/09/05 10:43:18;;;;;;;13.43;10.20;;;;;;;;;;5007421;28;20234;-72
2021/09/05 10:45:48;;;;;;;14.30;10.60;;;;;;;;;;5006406;28;20210;-72
2021/09/05 10:48:31;;;;;;;12.57;10.13;;;;;;;;;;5009462;28;20603;-72
2021/09/05 10:51:05;;;;;;;13.60;11.40;;;;;;;;;;5004919;28;20219;-72
2021/09/05 10:53:36;;;;;;;11.13;10.03;;;;;;;;;;5006596;28;20235;-72
2021/09/05 10:56:08;;;;;;;16.07;11.07;;;;;;;;;;5006206;28;20681;-72
2021/09/05 10:58:39;;;;;;;14.30;11.27;;;;;;;;;;5007173;28;20539;-72
2021/09/05 11:01:22;;;;;;;15.73;11.50;;;;;;;;;;5005562;28;20215;-72
2021/09/05 11:04:26;;;;;;;12.30;10.20;;;;;;;;;;5005446;28;20657;-72
2021/09/05 11:06:55;;;;;;;13.17;10.27;;;;;;;;;;5005137;28;20328;-72
2021/09/05 11:09:41;;;;;;;12.80;10.47;;;;;;;;;;5001732;28;20230;-72
2021/09/05 11:12:10;;;;;;;12.00;10.57;;;;;;;;;;5000376;28;20958;-72
2021/09/05 11:14:56;;;;;;;12.40;9.27;;;;;;;;;;5002470;28;20503;-72
2021/09/05 11:17:25;;;;;;;11.50;10.30;;;;;;;;;;5001309;28;20220;-72
2021/09/05 11:19:54;;;;;;;11.90;9.43;;;;;;;;;;5000617;28;20218;-72
2021/09/05 11:22:21;;;;;;;11.77;9.83;;;;;;;;;;4999217;28;20239;-72
2021/09/05 11:25:14;;;;;;;11.97;10.07;;;;;;;;;;4999513;28;20211;-72
2021/09/05 11:27:46;;;;;;;13.03;10.03;;;;;;;;;;5002127;28;20223;-72
2021/09/05 11:30:13;;;;;;;13.33;8.97;;;;;;;;;;5001580;28;20217;-72
2021/09/05 11:32:41;;;;;;;13.87;8.87;;;;;;;;;;5000890;28;20560;-72
2021/09/05 11:35:10;;;;;;;10.03;8.97;;;;;;;;;;4998986;28;20239;-73
2021/09/05 11:37:38;;;;;;;10.30;9.30;;;;;;;;;;5000154;28;20236;-72
2021/09/05 11:40:07;;;;;;;12.27;9.73;;;;;;;;;;5000400;28;20223;-72
2021/09/05 11:42:35;;;;;;;16.73;10.10;;;;;;;;;;5003714;28;20227;-72
2021/09/05 11:45:04;;;;;;;12.17;10.27;;;;;;;;;;5002414;28;20703;-72
2021/09/05 11:47:30;;;;;;;14.10;10.97;;;;;;;;;;5001123;28;20212;-72
2021/09/05 11:49:59;;;;;;;10.73;9.70;;;;;;;;;;4998912;28;20282;-72
2021/09/05 11:52:27;;;;;;;12.60;10.37;;;;;;;;;;5004610;28;20276;-72
2021/09/05 11:55:02;;;;;;;12.03;10.30;;;;;;;;;;5005485;28;20638;-73
2021/09/05 11:57:29;;;;;;;10.73;9.30;;;;;;;;;;5004758;28;20211;-73
2021/09/05 11:59:58;;;;;;;11.43;9.67;;;;;;;;;;5007071;28;20224;-74
2021/09/05 12:02:28;;;;;;;14.63;11.10;;;;;;;;;;5009408;28;20253;-74
2021/09/05 12:04:55;;;;;;;12.33;10.00;;;;;;;;;;5005897;28;20225;-75
2021/09/05 12:07:24;;;;;;;12.07;9.70;;;;;;;;;;5004972;28;20228;-75
2021/09/05 12:10:07;;;;;;;11.43;10.10;;;;;;;;;;5005145;28;20258;-75
2021/09/05 12:12:34;;;;;;;10.37;8.83;;;;;;;;;;5006072;28;21100;-76
2021/09/05 12:15:11;;;;;;;10.93;9.13;;;;;;;;;;5004880;28;20225;-75
2021/09/05 12:17:38;;;;;;;11.93;9.67;;;;;;;;;;5006525;28;20204;-76
2021/09/05 12:20:06;;;;;;;11.53;9.70;;;;;;;;;;5009735;28;20215;-74
2021/09/05 12:22:43;;;;;;;11.27;9.33;;;;;;;;;;5008005;28;20248;-75
2021/09/05 12:25:16;;;;;;;11.93;10.57;;;;;;;;;;5005371;28;20757;-75
2021/09/05 12:27:57;;;;;;;11.80;9.30;;;;;;;;;;5006376;28;20203;-73
2021/09/05 12:30:25;;;;;;;10.03;8.97;;;;;;;;;;5006048;28;20251;-76
2021/09/05 12:33:09;;;;;;;10.60;9.50;;;;;;;;;;5008417;28;20694;-76
2021/09/05 12:35:36;;;;;;;10.03;8.43;;;;;;;;;;5005477;28;20283;-75
2021/09/05 12:38:08;;;;;;;11.43;8.97;;;;;;;;;;5004355;28;20232;-76
2021/09/05 12:40:36;;;;;;;9.70;8.37;;;;;;;;;;5004861;28;20255;-76
2021/09/05 12:43:02;;;;;;;10.90;9.70;;;;;;;;;;5002017;28;20216;-76
2021/09/05 12:45:29;;;;;;;11.97;9.50;;;;;;;;;;5004752;28;20615;-76
2021/09/05 12:48:10;;;;;;;12.00;10.00;;;;;;;;;;5001388;28;20222;-76
2021/09/05 12:50:37;;;;;;;11.97;9.93;;;;;;;;;;5004762;28;20202;-75
2021/09/05 12:53:13;;;;;;;12.47;11.10;;;;;;;;;;5003318;28;20328;-75
2021/09/05 12:55:39;;;;;;;13.17;9.77;;;;;;;;;;5002903;28;20221;-76
2021/09/05 12:58:06;;;;;;;11.47;10.17;;;;;;;;;;5006775;28;20676;-79
2021/09/05 13:00:33;;;;;;;10.50;9.40;;;;;;;;;;5014413;28;20261;-79
2021/09/05 13:03:01;;;;;;;12.47;11.17;;;;;;;;;;5011654;28;20712;-79
2021/09/05 13:05:28;;;;;;;12.03;10.70;;;;;;;;;;5011765;28;20234;-79
2021/09/05 13:07:55;;;;;;;10.83;9.53;;;;;;;;;;5013277;28;20253;-79
2021/09/05 13:10:23;;;;;;;10.03;9.03;;;;;;;;;;5015419;28;20215;-79
2021/09/05 13:12:49;;;;;;;10.27;9.07;;;;;;;;;;5012745;28;20210;-79
2021/09/05 13:15:16;;;;;;;12.07;10.97;;;;;;;;;;5005601;28;20444;-77
2021/09/05 13:17:42;;;;;;;11.43;10.33;;;;;;;;;;5005052;28;20529;-77
2021/09/05 13:20:10;;;;;;;10.50;9.40;;;;;;;;;;5006245;28;20222;-77
2021/09/05 13:22:37;;;;;;;11.37;9.97;;;;;;;;;;5005478;28;20227;-77
2021/09/05 13:25:04;;;;;;;10.13;8.80;;;;;;;;;;5003864;28;20216;-77
2021/09/05 13:27:32;;;;;;;10.20;8.80;;;;;;;;;;5004703;28;20629;-76
2021/09/05 13:29:58;;;;;;;10.77;8.73;;;;;;;;;;5004916;28;20210;-77
2021/09/05 13:32:25;;;;;;;10.83;9.33;;;;;;;;;;5004212;28;20195;-77
2021/09/05 13:34:51;;;;;;;10.57;9.27;;;;;;;;;;5002685;28;20215;-77
2021/09/05 13:37:17;;;;;;;11.83;9.07;;;;;;;;;;5007660;28;21078;-77
2021/09/05 13:39:44;;;;;;;9.87;8.87;;;;;;;;;;5009370;28;20223;-77
2021/09/05 13:42:10;;;;;;;11.03;8.70;;;;;;;;;;5008466;28;20273;-77
2021/09/05 13:44:38;;;;;;;10.27;9.10;;;;;;;;;;5007947;28;20598;-77
2021/09/05 13:47:05;;;;;;;8.70;7.90;;;;;;;;;;5008631;28;20672;-77
2021/09/05 13:49:32;;;;;;;11.50;9.23;;;;;;;;;;5008425;28;20218;-77
2021/09/05 13:51:58;;;;;;;10.17;9.00;;;;;;;;;;5006257;28;20310;-77
2021/09/05 13:54:24;;;;;;;11.80;8.83;;;;;;;;;;5007929;28;20265;-77
2021/09/05 13:56:51;;;;;;;9.83;8.83;;;;;;;;;;5005853;28;20237;-77
2021/09/05 13:59:18;;;;;;;9.73;8.27;;;;;;;;;;5010993;28;20218;-78
2021/09/05 14:01:46;;;;;;;8.23;7.40;;;;;;;;;;5008891;28;20215;-77
2021/09/05 14:04:12;;;;;;;8.83;7.67;;;;;;;;;;5007416;28;20247;-77
2021/09/05 14:06:39;;;;;;;11.33;8.47;;;;;;;;;;5007760;28;20237;-78
2021/09/05 14:09:05;;;;;;;9.50;8.50;;;;;;;;;;5006223;28;21010;-77
2021/09/05 14:11:32;;;;;;;9.23;8.20;;;;;;;;;;5006181;28;20222;-77
2021/09/05 14:13:58;;;;;;;9.10;8.23;;;;;;;;;;5006328;28;20738;-77
2021/09/05 14:16:25;;;;;;;9.63;8.60;;;;;;;;;;5006841;28;20273;-77
2021/09/05 14:18:52;;;;;;;9.63;8.20;;;;;;;;;;5007281;28;20219;-77
2021/09/05 14:21:19;;;;;;;9.63;7.93;;;;;;;;;;5006609;28;20293;-78
2021/09/05 14:23:45;;;;;;;9.53;7.80;;;;;;;;;;5006619;28;20277;-77
2021/09/05 14:26:15;;;;;;;9.33;7.77;;;;;;;;;;5006661;28;20421;-77